Time;durP1;ratioP1;P1;durP2;ratioP2;P2;SDS_P1;SDS_P2;PMS_P1;PMS_P2;Temp;Humidity;BMP_temperature;BMP_pressure;BME280_temperature;BME280_humidity;BME280_pressure;Samples;Min_cycle;Max_cycle;Signal;HPM_P1;HPM_P2
2022/01/23 00:02:27;;;;;;;66.03;62.00;;;;;;;7.07;100.00;103778.28;1998736;71;32832;-72
2022/01/23 00:08:10;;;;;;;68.83;64.73;;;;;;;7.09;100.00;103785.36;2016651;71;32820;-72
2022/01/23 00:19:58;;;;;;;72.53;68.13;;;;;;;7.06;100.00;103784.34;1998378;71;33025;-70
2022/01/23 00:31:45;;;;;;;68.17;63.87;;;;;;;7.21;100.00;103787.11;2011177;71;33434;-73
2022/01/23 00:37:29;;;;;;;73.10;68.53;;;;;;;7.09;100.00;103788.13;2014789;71;33395;-70
2022/01/23 00:43:17;;;;;;;72.43;67.73;;;;;;;7.04;100.00;103786.97;2003692;71;33315;-71
2022/01/23 00:55:16;;;;;;;64.77;60.63;;;;;;;7.16;100.00;103784.92;1995109;71;33352;-71
2022/01/23 01:01:00;;;;;;;66.90;62.80;;;;;;;7.43;100.00;103770.08;2003585;71;33007;-72
2022/01/23 01:06:45;;;;;;;67.13;62.83;;;;;;;7.11;100.00;103756.98;2014710;71;33402;-71
2022/01/23 01:12:37;;;;;;;66.73;62.63;;;;;;;7.37;100.00;103754.23;1996836;71;32916;-71
2022/01/23 01:30:30;;;;;;;69.07;64.57;;;;;;;6.98;100.00;103754.03;2007466;71;32911;-72
2022/01/23 01:36:20;;;;;;;71.43;66.93;;;;;;;7.03;100.00;103738.26;2002053;71;33321;-73
2022/01/23 01:42:03;;;;;;;67.13;62.83;;;;;;;6.84;100.00;103749.38;2014775;71;32897;-72
2022/01/23 01:47:50;;;;;;;67.33;63.03;;;;;;;7.25;100.00;103752.50;2018301;71;33333;-72
2022/01/23 01:53:35;;;;;;;71.57;67.17;;;;;;;7.08;100.00;103743.55;2003918;71;33409;-72
2022/01/23 02:11:45;;;;;;;73.73;69.03;;;;;;;6.77;100.00;103723.53;2000486;71;32777;-71
2022/01/23 02:17:41;;;;;;;72.77;68.03;;;;;;;7.00;100.00;103722.07;2016409;71;32835;-72
2022/01/23 02:23:30;;;;;;;75.67;70.87;;;;;;;6.76;100.00;103727.38;2016302;71;32925;-73
2022/01/23 02:53:51;;;;;;;73.37;68.47;;;;;;;6.95;100.00;103725.41;1998785;71;33371;-70
2022/01/23 02:59:25;;;;;;;71.97;67.23;;;;;;;6.79;100.00;103719.55;2003895;70;32943;-71
2022/01/23 03:05:22;;;;;;;72.57;67.77;;;;;;;6.89;100.00;103704.59;2002484;71;32768;-73
2022/01/23 03:11:02;;;;;;;74.00;69.13;;;;;;;6.74;100.00;103710.11;1995057;71;33225;-73
2022/01/23 03:29:05;;;;;;;70.17;65.43;;;;;;;6.62;100.00;103704.73;2014499;71;32920;-71
2022/01/23 03:34:48;;;;;;;74.23;69.20;;;;;;;6.59;100.00;103703.73;1991471;71;33249;-71
2022/01/23 03:40:33;;;;;;;75.17;70.27;;;;;;;6.53;100.00;103703.95;2016463;71;32897;-72
2022/01/23 03:46:35;;;;;;;73.17;68.07;;;;;;;6.52;100.00;103701.37;2007440;70;32893;-73
2022/01/23 03:52:12;;;;;;;77.90;72.70;;;;;;;6.72;100.00;103703.91;2013380;71;32802;-72
2022/01/23 03:57:56;;;;;;;73.70;68.50;;;;;;;6.51;100.00;103693.61;2009845;71;33281;-71
2022/01/23 04:03:41;;;;;;;72.43;67.43;;;;;;;6.67;100.00;103707.27;2005550;71;32979;-71
2022/01/23 04:09:25;;;;;;;72.23;67.23;;;;;;;6.80;100.00;103710.75;2018233;71;32898;-73
2022/01/23 04:15:18;;;;;;;77.60;72.30;;;;;;;6.63;100.00;103703.69;2016632;71;33449;-73
2022/01/23 04:21:05;;;;;;;72.73;67.80;;;;;;;6.59;100.00;103716.16;2007569;71;33446;-70
2022/01/23 04:33:24;;;;;;;75.27;69.97;;;;;;;6.46;100.00;103713.19;2005599;71;32894;-73
2022/01/23 05:15:28;;;;;;;73.70;68.30;;;;;;;6.58;100.00;103695.97;2005744;71;33369;-72
2022/01/23 05:21:22;;;;;;;74.37;68.97;;;;;;;6.55;100.00;103689.94;2016571;71;32915;-72
2022/01/23 05:27:07;;;;;;;75.20;69.90;;;;;;;6.56;100.00;103689.77;2005885;71;32766;-71
2022/01/23 05:32:54;;;;;;;75.37;70.07;;;;;;;6.45;100.00;103689.38;2011477;71;32789;-73
2022/01/23 05:38:38;;;;;;;74.07;68.67;;;;;;;6.35;100.00;103682.22;2012841;71;32905;-73
2022/01/23 05:44:23;;;;;;;75.10;69.60;;;;;;;6.57;100.00;103677.67;1991252;71;32868;-71
2022/01/23 05:50:10;;;;;;;73.73;68.43;;;;;;;6.67;100.00;103673.26;2016310;71;33026;-73
2022/01/23 05:55:55;;;;;;;75.27;69.53;;;;;;;6.66;100.00;103673.78;2003804;71;33453;-70
2022/01/23 06:01:40;;;;;;;72.87;67.50;;;;;;;6.50;100.00;103671.20;1991169;71;32777;-70
2022/01/23 06:07:26;;;;;;;74.30;68.90;;;;;;;6.45;100.00;103671.43;2007828;70;32883;-72
2022/01/23 06:13:14;;;;;;;72.40;67.03;;;;;;;6.36;100.00;103672.04;2004179;71;32771;-73
2022/01/23 06:18:58;;;;;;;74.10;68.73;;;;;;;6.36;100.00;103685.33;2018094;71;32842;-73
2022/01/23 06:24:46;;;;;;;72.23;66.90;;;;;;;6.30;100.00;103681.06;2016661;71;33462;-72
2022/01/23 06:30:33;;;;;;;77.03;71.43;;;;;;;6.24;100.00;103696.49;2009689;71;32821;-70
2022/01/23 06:36:17;;;;;;;75.03;69.23;;;;;;;6.24;100.00;103689.59;2002395;71;32821;-73
2022/01/23 06:42:02;;;;;;;72.43;66.93;;;;;;;6.34;100.00;103697.58;2013097;71;32824;-73
2022/01/23 06:47:46;;;;;;;79.03;73.13;;;;;;;6.37;100.00;103692.53;2003792;71;32970;-73
2022/01/23 06:53:30;;;;;;;78.03;72.20;;;;;;;6.49;100.00;103694.34;2016788;71;33350;-72
2022/01/23 06:59:15;;;;;;;78.30;72.53;;;;;;;6.48;100.00;103691.75;2013052;71;33286;-72
2022/01/23 07:04:59;;;;;;;79.10;73.40;;;;;;;6.33;100.00;103688.98;2018290;71;33327;-73
2022/01/23 07:10:44;;;;;;;80.43;74.63;;;;;;;6.55;100.00;103692.18;2003489;71;32893;-73
2022/01/23 07:16:28;;;;;;;76.73;71.03;;;;;;;6.56;100.00;103695.28;2012877;71;33006;-73
2022/01/23 07:22:12;;;;;;;78.73;72.83;;;;;;;6.40;100.00;103708.75;2016478;71;33265;-72
2022/01/23 07:27:58;;;;;;;76.90;71.20;;;;;;;6.84;100.00;103708.80;2011063;71;32831;-71
2022/01/23 07:33:43;;;;;;;78.33;72.80;;;;;;;6.88;100.00;103698.21;2016357;70;32840;-72
2022/01/23 07:39:27;;;;;;;75.40;70.00;;;;;;;6.73;100.00;103702.34;2016529;71;33270;-70
2022/01/23 07:45:12;;;;;;;74.43;69.03;;;;;;;6.50;100.00;103717.30;2013075;71;32924;-71
2022/01/23 07:50:57;;;;;;;76.83;71.30;;;;;;;6.38;100.00;103721.87;2014819;71;33376;-71
2022/01/23 07:56:42;;;;;;;78.93;73.03;;;;;;;6.33;100.00;103729.02;1996938;71;32750;-71
2022/01/23 08:02:26;;;;;;;81.23;75.33;;;;;;;6.45;100.00;103727.52;2014939;71;32912;-71
2022/01/23 08:08:10;;;;;;;77.53;71.63;;;;;;;6.70;100.00;103736.40;2000826;71;33313;-72
2022/01/23 08:13:55;;;;;;;78.20;72.60;;;;;;;6.50;100.00;103732.48;2016397;71;32897;-70
2022/01/23 08:19:39;;;;;;;83.67;77.47;;;;;;;6.43;100.00;103737.88;1991192;71;32902;-71
2022/01/23 08:25:24;;;;;;;80.07;74.17;;;;;;;6.39;100.00;103737.91;2016466;71;32832;-71
2022/01/23 08:31:08;;;;;;;77.90;72.20;;;;;;;6.36;100.00;103739.16;1996991;71;32861;-72
2022/01/23 08:36:55;;;;;;;77.53;71.67;;;;;;;6.35;100.00;103748.48;2002039;71;33300;-72
2022/01/23 08:42:39;;;;;;;84.90;78.40;;;;;;;6.47;100.00;103746.64;2007393;71;32963;-72
2022/01/23 08:48:25;;;;;;;82.03;75.87;;;;;;;6.57;100.00;103738.95;1994776;71;33455;-72
2022/01/23 08:54:09;;;;;;;79.57;73.67;;;;;;;6.62;100.00;103741.50;2016713;71;33433;-72
2022/01/23 08:59:54;;;;;;;77.13;71.43;;;;;;;6.69;100.00;103747.97;2011100;71;32885;-72
2022/01/23 09:05:38;;;;;;;77.90;72.03;;;;;;;6.67;100.00;103750.60;2007898;71;33213;-72
2022/01/23 09:11:27;;;;;;;81.47;75.50;;;;;;;6.63;100.00;103747.88;2012984;71;33043;-72
2022/01/23 09:17:12;;;;;;;79.23;73.07;;;;;;;6.69;100.00;103755.39;2012726;71;33361;-72
2022/01/23 09:22:57;;;;;;;82.87;76.77;;;;;;;6.71;100.00;103750.04;1991257;71;32849;-73
2022/01/23 09:28:44;;;;;;;102.43;93.20;;;;;;;6.68;100.00;103742.11;2015036;71;33320;-73
2022/01/23 09:34:31;;;;;;;95.73;87.67;;;;;;;6.84;100.00;103732.80;1996974;71;33465;-73
2022/01/23 09:40:17;;;;;;;84.30;78.07;;;;;;;6.90;100.00;103732.54;2014656;71;33365;-72
2022/01/23 09:46:05;;;;;;;81.87;75.73;;;;;;;6.86;100.00;103725.16;2007564;71;32874;-73
2022/01/23 09:51:52;;;;;;;79.13;73.23;;;;;;;6.97;100.00;103717.80;2001082;71;32876;-73
2022/01/23 09:57:38;;;;;;;83.43;77.33;;;;;;;7.04;100.00;103726.16;2012706;71;32829;-74
2022/01/23 10:03:25;;;;;;;82.40;76.33;;;;;;;7.03;100.00;103715.63;2014923;71;32942;-73
2022/01/23 10:09:08;;;;;;;80.87;74.87;;;;;;;7.23;100.00;103711.20;2014468;71;33001;-74
2022/01/23 10:14:52;;;;;;;85.40;79.07;;;;;;;7.16;100.00;103711.66;1991290;71;32865;-74
2022/01/23 10:20:37;;;;;;;81.50;75.77;;;;;;;7.19;100.00;103710.41;2014527;71;32839;-72
2022/01/23 10:26:43;;;;;;;85.27;79.13;;;;;;;7.17;100.00;103709.75;2004185;71;33217;-73
2022/01/23 10:32:31;;;;;;;80.67;74.90;;;;;;;7.42;100.00;103711.13;2014801;71;32836;-75
2022/01/23 10:38:18;;;;;;;77.80;72.30;;;;;;;7.45;100.00;103714.02;1999977;70;33295;-73
2022/01/23 10:50:25;;;;;;;82.00;76.27;;;;;;;7.43;100.00;103713.38;2001785;71;32830;-73
2022/01/23 10:56:13;;;;;;;80.33;74.63;;;;;;;7.40;100.00;103702.71;2010739;71;32844;-73
2022/01/23 11:02:13;;;;;;;80.47;74.70;;;;;;;7.42;100.00;103701.45;2005801;71;32833;-73
2022/01/23 11:08:21;;;;;;;77.77;72.27;;;;;;;7.52;100.00;103701.14;2016340;71;32879;-74
2022/01/23 11:20:33;;;;;;;79.77;73.87;;;;;;;7.51;100.00;103689.22;2011661;71;33349;-72
2022/01/23 11:26:29;;;;;;;83.93;77.97;;;;;;;7.51;100.00;103680.92;2005976;71;32888;-72
2022/01/23 11:32:24;;;;;;;80.27;74.57;;;;;;;7.55;100.00;103682.24;2016448;71;32908;-72
2022/01/23 11:38:14;;;;;;;78.00;72.23;;;;;;;7.63;100.00;103661.89;1995122;70;32792;-74
2022/01/23 11:51:02;;;;;;;80.17;74.10;;;;;;;7.67;100.00;103654.38;2011635;71;32832;-73
2022/01/23 11:56:50;;;;;;;76.40;70.93;;;;;;;7.63;100.00;103650.83;2014476;70;32897;-71
2022/01/23 12:05:47;;;;;;;75.30;69.90;;;;;;;7.79;100.00;103640.86;2061139;69;32590;-74
2022/01/23 12:08:45;;;;;;;73.83;68.37;;;;;;;7.65;100.00;103649.59;1936276;73;26345;-74
2022/01/23 12:11:36;;;;;;;72.30;66.97;;;;;;;7.56;100.00;103641.61;1938061;73;26325;-75
2022/01/23 12:17:13;;;;;;;76.20;70.87;;;;;;;7.53;100.00;103644.22;1934497;73;26235;-74
2022/01/23 12:19:54;;;;;;;66.47;61.47;;;;;;;7.52;100.00;103638.91;1937881;74;26707;-75
2022/01/23 12:22:36;;;;;;;71.93;66.87;;;;;;;7.54;100.00;103640.94;1931107;73;26715;-76
2022/01/23 12:25:21;;;;;;;69.90;64.80;;;;;;;7.50;100.00;103632.18;1932940;73;26281;-77
2022/01/23 12:28:10;;;;;;;75.00;69.50;;;;;;;7.58;100.00;103629.80;1942792;73;26223;-74
2022/01/23 12:30:42;;;;;;;72.87;67.47;;;;;;;7.54;100.00;103624.34;1965950;72;26315;-75
2022/01/23 12:33:16;;;;;;;71.67;66.47;;;;;;;7.51;100.00;103628.89;1931431;73;26223;-74
2022/01/23 12:35:49;;;;;;;71.90;66.80;;;;;;;7.47;100.00;103624.28;1937780;74;26362;-76
2022/01/23 12:38:22;;;;;;;71.57;66.37;;;;;;;7.55;100.00;103622.77;1937939;73;26266;-76
2022/01/23 12:40:52;;;;;;;70.20;65.17;;;;;;;7.69;100.00;103625.14;1964218;72;26254;-75
2022/01/23 12:43:25;;;;;;;73.53;68.03;;;;;;;7.64;100.00;103617.96;1932970;73;26805;-75
2022/01/23 12:45:58;;;;;;;73.77;68.30;;;;;;;7.52;100.00;103620.41;2008547;70;26313;-78
2022/01/23 12:48:48;;;;;;;73.57;68.17;;;;;;;7.55;100.00;103613.09;2015649;70;26214;-76
2022/01/23 12:51:39;;;;;;;75.20;69.97;;;;;;;7.51;100.00;103612.30;2016972;71;26255;-75
2022/01/23 12:54:16;;;;;;;74.43;68.90;;;;;;;7.54;100.00;103611.89;2012917;70;26316;-77
2022/01/23 12:56:49;;;;;;;72.97;67.70;;;;;;;7.47;100.00;103603.55;2012650;70;26700;-76
2022/01/23 12:59:26;;;;;;;73.87;68.37;;;;;;;7.47;100.00;103598.02;2023744;70;26222;-77
2022/01/23 13:02:03;;;;;;;72.37;66.97;;;;;;;7.59;100.00;103592.27;2014629;70;26369;-74
2022/01/23 13:08:10;;;;;;;74.60;68.90;;;;;;;7.53;100.00;103572.30;1991446;71;32766;-74
2022/01/23 13:14:00;;;;;;;78.63;72.53;;;;;;;7.41;100.00;103546.77;2005512;71;33293;-74
2022/01/23 13:26:22;;;;;;;75.40;69.73;;;;;;;7.51;100.00;103550.06;1996787;71;33077;-73
2022/01/23 13:31:50;;;;;;;72.77;67.33;;;;;;;7.60;100.00;103540.57;1996864;71;32769;-73
2022/01/23 13:37:45;;;;;;;70.90;65.60;;;;;;;7.44;100.00;103533.95;2005616;71;32846;-73
2022/01/23 14:02:26;;;;;;;69.20;63.80;;;;;;;7.54;100.00;103500.73;1985618;70;32759;-73
2022/01/23 14:08:20;;;;;;;70.10;64.73;;;;;;;7.55;100.00;103492.76;1996908;71;32848;-74
2022/01/23 14:14:16;;;;;;;74.53;68.63;;;;;;;7.54;100.00;103492.42;2006221;71;33309;-74
2022/01/23 14:20:06;;;;;;;75.83;69.83;;;;;;;7.50;100.00;103489.73;2005440;71;33561;-73
2022/01/23 14:25:53;;;;;;;74.40;68.40;;;;;;;7.49;100.00;103491.31;2011051;71;32826;-73
2022/01/23 14:31:40;;;;;;;74.80;68.73;;;;;;;7.47;100.00;103487.91;1991303;71;32772;-74
2022/01/23 14:37:35;;;;;;;68.13;62.93;;;;;;;7.44;100.00;103490.56;1996984;71;33297;-71
2022/01/23 14:43:38;;;;;;;69.03;63.63;;;;;;;7.37;100.00;103478.56;1998352;71;32871;-73
2022/01/23 14:49:26;;;;;;;68.50;63.40;;;;;;;7.43;100.00;103479.16;2000058;71;32973;-75
2022/01/23 14:55:12;;;;;;;67.07;61.97;;;;;;;7.41;100.00;103467.42;1994579;71;32978;-73
2022/01/23 15:00:59;;;;;;;66.53;61.57;;;;;;;7.47;100.00;103470.78;2016594;71;32900;-72
2022/01/23 15:06:47;;;;;;;66.43;61.70;;;;;;;7.38;100.00;103459.55;1996793;71;33292;-72
2022/01/23 15:12:32;;;;;;;66.93;61.93;;;;;;;7.43;100.00;103458.42;2009009;71;32926;-73
2022/01/23 15:18:17;;;;;;;72.83;67.53;;;;;;;7.32;100.00;103466.72;1991483;71;32834;-74
2022/01/23 15:24:02;;;;;;;69.00;63.80;;;;;;;7.36;100.00;103456.11;2014596;71;32874;-75
2022/01/23 15:29:47;;;;;;;65.20;60.17;;;;;;;7.36;100.00;103447.81;2007885;71;33300;-72
2022/01/23 15:35:31;;;;;;;70.43;64.97;;;;;;;7.44;100.00;103450.98;2000091;71;32872;-73
2022/01/23 15:41:16;;;;;;;67.53;62.30;;;;;;;7.24;100.00;103441.98;2005896;71;32846;-73
2022/01/23 15:47:01;;;;;;;69.47;64.13;;;;;;;7.43;100.00;103434.91;2012953;71;32821;-75
2022/01/23 15:52:46;;;;;;;70.37;65.10;;;;;;;7.30;100.00;103426.52;2016784;71;32814;-72
2022/01/23 15:58:31;;;;;;;65.33;60.33;;;;;;;7.33;100.00;103430.25;2012212;71;33268;-76
2022/01/23 16:04:17;;;;;;;67.17;62.03;;;;;;;7.18;100.00;103429.50;1955308;72;32948;-72
2022/01/23 16:10:01;;;;;;;68.67;63.70;;;;;;;7.25;100.00;103429.02;2014767;71;32898;-74
2022/01/23 16:15:45;;;;;;;72.07;66.83;;;;;;;7.03;100.00;103438.38;1999764;71;32930;-74
2022/01/23 16:21:30;;;;;;;66.70;61.90;;;;;;;7.17;100.00;103428.64;1991148;71;32754;-74
2022/01/23 16:27:14;;;;;;;64.67;59.87;;;;;;;7.13;100.00;103427.86;1991255;71;32918;-72
2022/01/23 16:32:58;;;;;;;66.20;61.40;;;;;;;7.07;100.00;103431.41;2005401;71;33383;-75
2022/01/23 16:38:42;;;;;;;71.17;65.70;;;;;;;6.98;100.00;103421.54;2010984;71;32893;-74
2022/01/23 16:44:28;;;;;;;70.13;64.90;;;;;;;7.02;100.00;103426.99;1991335;71;32820;-79
2022/01/23 16:50:13;;;;;;;70.20;65.00;;;;;;;7.06;100.00;103431.10;1994592;71;33039;-73
2022/01/23 16:55:57;;;;;;;66.43;61.50;;;;;;;7.06;100.00;103434.69;2009711;71;33229;-77
2022/01/23 17:01:46;;;;;;;68.60;63.40;;;;;;;6.95;100.00;103444.05;2018252;71;33357;-77
2022/01/23 17:07:29;;;;;;;68.67;63.67;;;;;;;7.09;100.00;103440.37;2002077;71;32951;-73
2022/01/23 17:13:14;;;;;;;65.97;60.93;;;;;;;6.97;100.00;103444.72;2006064;71;32843;-71
2022/01/23 17:18:58;;;;;;;65.03;60.23;;;;;;;6.91;100.00;103438.07;2016535;71;33310;-71
2022/01/23 17:24:43;;;;;;;68.50;63.73;;;;;;;6.87;100.00;103439.52;2013096;71;32898;-72
2022/01/23 17:30:28;;;;;;;65.93;61.43;;;;;;;6.98;100.00;103440.36;2002170;71;32876;-73
2022/01/23 17:36:12;;;;;;;69.23;64.17;;;;;;;6.85;100.00;103435.56;2009506;71;32827;-73
2022/01/23 17:41:56;;;;;;;70.63;65.27;;;;;;;6.87;100.00;103436.76;1991251;71;32779;-75
2022/01/23 17:53:44;;;;;;;67.13;61.80;;;;;;;6.95;100.00;103439.91;2003576;71;32957;-74
2022/01/23 17:59:31;;;;;;;64.90;60.30;;;;;;;7.06;100.00;103434.69;2005684;71;32817;-73
2022/01/23 18:05:15;;;;;;;64.33;59.73;;;;;;;7.01;100.00;103437.22;1994430;71;32897;-75
2022/01/23 18:10:59;;;;;;;68.30;63.40;;;;;;;7.14;100.00;103429.05;2007551;71;32914;-76
2022/01/23 18:16:45;;;;;;;71.93;66.63;;;;;;;6.72;100.00;103444.23;2004157;71;33297;-70
2022/01/23 18:22:29;;;;;;;71.13;66.03;;;;;;;6.96;100.00;103445.77;2009856;71;33219;-72
2022/01/23 18:28:15;;;;;;;70.00;65.10;;;;;;;6.77;100.00;103455.56;1995119;71;33275;-72
2022/01/23 18:34:00;;;;;;;68.13;62.90;;;;;;;6.67;100.00;103451.77;2003725;70;32962;-74
2022/01/23 18:39:45;;;;;;;66.60;61.73;;;;;;;6.71;100.00;103456.36;2016767;71;33003;-75
2022/01/23 18:45:30;;;;;;;64.87;59.83;;;;;;;7.00;100.00;103456.75;2016407;71;33005;-72
2022/01/23 18:51:15;;;;;;;68.80;63.90;;;;;;;7.11;100.00;103453.45;2007663;71;32865;-74
2022/01/23 18:57:04;;;;;;;71.50;66.40;;;;;;;6.66;100.00;103465.75;2005667;71;32864;-79
2022/01/23 19:02:51;;;;;;;73.87;68.30;;;;;;;6.83;100.00;103458.41;2011374;70;33413;-71
2022/01/23 19:08:39;;;;;;;68.07;62.87;;;;;;;6.97;100.00;103455.78;2018236;71;32843;-72
2022/01/23 19:14:25;;;;;;;70.53;65.07;;;;;;;6.98;100.00;103456.08;2016401;71;32863;-75
2022/01/23 19:20:11;;;;;;;65.67;60.70;;;;;;;6.73;100.00;103463.39;1826116;76;85312;-76
2022/01/23 19:25:55;;;;;;;67.87;62.97;;;;;;;6.85;100.00;103458.19;1895429;75;86318;-74
2022/01/23 19:31:39;;;;;;;74.30;68.63;;;;;;;6.69;100.00;103454.30;1942663;73;86183;-75
2022/01/23 19:37:24;;;;;;;71.53;66.23;;;;;;;6.84;100.00;103448.22;1974493;71;39458;-73
2022/01/23 19:49:18;;;;;;;74.17;68.23;;;;;;;6.72;100.00;103442.86;1847988;76;86646;-74
2022/01/23 19:55:03;;;;;;;71.80;66.30;;;;;;;6.54;100.00;103447.98;1809559;78;86789;-73
2022/01/23 20:00:50;;;;;;;75.23;69.90;;;;;;;6.64;100.00;103445.75;1907824;73;86553;-72
2022/01/23 20:06:37;;;;;;;76.53;70.77;;;;;;;6.56;100.00;103448.11;1818642;78;85938;-74
2022/01/23 20:18:21;;;;;;;80.23;74.13;;;;;;;6.35;100.00;103455.84;1942777;71;39668;-73
2022/01/23 20:24:08;;;;;;;77.40;71.50;;;;;;;6.60;100.00;103451.33;1891852;74;86348;-74
2022/01/23 20:29:55;;;;;;;81.27;74.47;;;;;;;6.43;100.00;103459.00;1879564;75;85777;-75
2022/01/23 20:35:42;;;;;;;82.47;76.20;;;;;;;6.60;100.00;103451.33;1909822;72;86320;-74
2022/01/23 20:41:30;;;;;;;79.70;73.30;;;;;;;6.50;100.00;103456.34;1932658;71;39669;-76
2022/01/23 20:47:15;;;;;;;74.53;68.73;;;;;;;6.64;100.00;103450.75;1894157;74;86296;-79
2022/01/23 20:53:09;;;;;;;78.50;72.33;;;;;;;6.49;100.00;103452.71;1872419;73;86002;-71
2022/01/23 20:58:54;;;;;;;80.10;73.73;;;;;;;6.48;100.00;103457.04;1892526;73;86577;-73
2022/01/23 21:04:39;;;;;;;75.40;69.47;;;;;;;6.38;100.00;103449.92;1870046;76;86170;-76
2022/01/23 21:10:23;;;;;;;78.13;71.73;;;;;;;6.51;100.00;103453.87;1986426;71;39676;-71
2022/01/23 21:29:05;;;;;;;77.63;71.50;;;;;;;6.46;100.00;103466.06;1982838;70;39696;-74
2022/01/23 21:40:42;;;;;;;74.07;67.97;;;;;;;6.61;100.00;103461.34;1918532;73;85464;-76
2022/01/23 21:46:29;;;;;;;77.57;71.33;;;;;;;6.38;100.00;103462.34;1985960;71;39483;-73
2022/01/23 21:52:17;;;;;;;78.00;71.97;;;;;;;6.41;100.00;103462.50;1830079;76;86633;-75
2022/01/23 21:58:01;;;;;;;74.93;69.03;;;;;;;6.59;100.00;103460.70;1836199;76;86196;-74
2022/01/23 22:03:44;;;;;;;74.97;69.13;;;;;;;6.54;100.00;103457.13;1955480;72;86122;-75
2022/01/23 22:09:39;;;;;;;70.33;64.90;;;;;;;6.74;100.00;103455.95;1981603;71;39510;-73
2022/01/23 22:21:23;;;;;;;76.67;70.87;;;;;;;6.45;100.00;103450.53;1841840;76;86325;-75
2022/01/23 22:27:08;;;;;;;75.70;69.97;;;;;;;6.51;100.00;103449.22;1875498;74;86256;-74
2022/01/23 22:32:52;;;;;;;75.47;69.87;;;;;;;6.46;100.00;103453.08;1877925;75;86101;-76
2022/01/23 22:38:39;;;;;;;75.87;70.33;;;;;;;6.47;100.00;103452.56;1935156;73;86435;-74
2022/01/23 22:44:26;;;;;;;75.23;69.73;;;;;;;6.57;100.00;103449.83;1987788;71;39589;-76
2022/01/23 22:50:11;;;;;;;74.47;68.90;;;;;;;6.44;100.00;103444.67;1842055;76;86360;-74
2022/01/23 22:55:56;;;;;;;67.07;62.50;;;;;;;6.51;100.00;103449.22;1879886;74;86275;-73
2022/01/23 23:01:42;;;;;;;74.10;68.57;;;;;;;6.55;100.00;103446.39;1910915;72;86687;-74
2022/01/23 23:07:25;;;;;;;73.73;68.33;;;;;;;6.53;100.00;103453.17;1934212;71;39630;-74
2022/01/23 23:13:16;;;;;;;73.10;67.80;;;;;;;6.56;100.00;103456.40;1842298;76;86246;-72
2022/01/23 23:19:03;;;;;;;70.53;65.33;;;;;;;6.53;100.00;103458.70;1872450;75;86439;-74
2022/01/23 23:24:48;;;;;;;73.77;68.37;;;;;;;6.44;100.00;103452.44;1950148;73;86380;-74
2022/01/23 23:30:32;;;;;;;72.40;67.30;;;;;;;6.38;100.00;103448.53;1939111;71;40180;-74
2022/01/23 23:36:17;;;;;;;72.67;67.37;;;;;;;6.60;100.00;103443.91;1884732;74;86284;-74
2022/01/23 23:42:04;;;;;;;71.67;66.77;;;;;;;6.65;100.00;103433.13;1874746;74;86564;-73
2022/01/23 23:47:55;;;;;;;68.47;63.67;;;;;;;6.47;100.00;103435.98;1896670;75;86341;-73
2022/01/23 23:53:40;;;;;;;71.87;66.77;;;;;;;6.56;100.00;103437.59;1922863;73;86215;-74
2022/01/23 23:59:27;;;;;;;75.47;70.20;;;;;;;6.42;100.00;103435.75;1984328;71;39643;-74
